createdAt,value
2023-02-22T00:01:58.889Z,32.47
2023-02-22T00:04:25.228Z,32.49
2023-02-22T00:06:51.599Z,32.48
2023-02-22T00:09:17.937Z,32.51
2023-02-22T00:11:44.321Z,32.52
2023-02-22T00:14:12.670Z,32.56
2023-02-22T00:16:37.098Z,32.56
2023-02-22T00:19:03.442Z,32.58
2023-02-22T00:21:29.854Z,32.59
2023-02-22T00:23:56.230Z,32.62
2023-02-22T00:26:22.629Z,32.62
2023-02-22T00:28:48.958Z,32.69
2023-02-22T00:31:15.772Z,32.68
2023-02-22T00:33:41.695Z,32.69
2023-02-22T00:36:07.896Z,32.68
2023-02-22T00:38:34.237Z,32.72
2023-02-22T00:41:00.629Z,32.78
2023-02-22T00:43:26.966Z,32.75
2023-02-22T00:45:53.383Z,32.78
2023-02-22T00:48:19.745Z,32.78
2023-02-22T00:50:46.113Z,32.81
2023-02-22T00:53:12.456Z,32.85
2023-02-22T00:55:38.878Z,32.83
2023-02-22T00:58:05.249Z,32.86
2023-02-22T01:00:31.625Z,32.86
2023-02-22T01:02:58.024Z,32.88
2023-02-22T01:05:24.432Z,32.91
2023-02-22T01:07:50.774Z,32.91
2023-02-22T01:10:17.168Z,32.92
2023-02-22T01:12:43.514Z,32.94
2023-02-22T01:15:09.888Z,32.95
2023-02-22T01:17:36.316Z,32.98
2023-02-22T01:20:02.717Z,32.98
2023-02-22T01:22:29.058Z,33.01
2023-02-22T01:24:55.456Z,33.00
2023-02-22T01:27:21.815Z,33.04
2023-02-22T01:29:48.252Z,33.03
2023-02-22T01:32:14.680Z,33.04
2023-02-22T01:34:41.014Z,33.04
2023-02-22T01:37:07.348Z,33.07
2023-02-22T01:39:33.742Z,33.07
2023-02-22T01:42:01.037Z,33.10
2023-02-22T01:44:26.472Z,33.11
2023-02-22T01:46:52.847Z,33.13
2023-02-22T01:49:20.415Z,33.13
2023-02-22T01:51:45.574Z,33.16
2023-02-22T01:54:11.962Z,33.17
2023-02-22T01:56:38.353Z,33.16
2023-02-22T01:59:04.702Z,33.19
2023-02-22T02:01:31.101Z,33.23
2023-02-22T02:03:57.487Z,33.23
2023-02-22T02:06:23.812Z,33.26
2023-02-22T02:08:50.227Z,33.29
2023-02-22T02:11:16.753Z,33.27
2023-02-22T02:13:42.981Z,33.30
2023-02-22T02:16:09.296Z,33.30
2023-02-22T02:18:35.706Z,33.33
2023-02-22T02:21:02.044Z,33.31
2023-02-22T02:23:28.426Z,33.33
2023-02-22T02:25:54.771Z,33.39
2023-02-22T02:28:21.149Z,33.39
2023-02-22T02:30:47.500Z,33.39
2023-02-22T02:33:13.897Z,33.41
2023-02-22T02:35:40.266Z,33.42
2023-02-22T02:38:06.653Z,33.45
2023-02-22T02:40:33.029Z,33.46
2023-02-22T02:42:59.380Z,33.43
2023-02-22T02:45:25.741Z,33.46
2023-02-22T02:47:52.143Z,33.50
2023-02-22T02:50:18.485Z,33.51
2023-02-22T02:52:44.868Z,33.52
2023-02-22T02:55:11.259Z,33.53
2023-02-22T02:57:37.629Z,33.53
2023-02-22T03:00:03.977Z,33.55
2023-02-22T03:02:30.371Z,33.59
2023-02-22T03:04:56.697Z,33.40
2023-02-22T03:07:23.126Z,33.22
2023-02-22T03:09:50.673Z,32.97
2023-02-22T03:12:15.831Z,32.85
2023-02-22T03:14:43.124Z,32.58
2023-02-22T03:17:08.560Z,32.37
2023-02-22T03:19:34.904Z,32.23
2023-02-22T03:22:01.289Z,31.98
2023-02-22T03:24:27.630Z,31.74
2023-02-22T03:26:54.024Z,31.67
2023-02-22T03:29:20.358Z,31.53
2023-02-22T03:31:46.745Z,31.36
2023-02-22T03:34:13.153Z,31.23
2023-02-22T03:36:41.489Z,31.08
2023-02-22T03:39:05.885Z,31.01
2023-02-22T03:41:32.321Z,30.82
2023-02-22T03:43:58.660Z,30.75
2023-02-22T03:46:25.088Z,30.62
2023-02-22T03:48:51.407Z,30.47
2023-02-22T03:51:18.239Z,30.46
2023-02-22T03:53:44.328Z,30.37
2023-02-22T03:56:10.667Z,30.30
2023-02-22T03:58:37.091Z,30.15
2023-02-22T04:01:03.467Z,30.08
2023-02-22T04:03:29.801Z,29.96
2023-02-22T04:05:56.183Z,29.91
2023-02-22T04:08:22.529Z,29.80
2023-02-22T04:10:48.925Z,29.70
2023-02-22T04:13:15.267Z,29.66
2023-02-22T04:15:41.720Z,29.57
2023-02-22T04:18:08.091Z,29.49
2023-02-22T04:20:34.431Z,29.35
2023-02-22T04:23:00.817Z,29.30
2023-02-22T04:25:27.152Z,29.27
2023-02-22T04:27:53.544Z,29.19
2023-02-22T04:30:19.952Z,29.05
2023-02-22T04:32:46.321Z,28.96
2023-02-22T04:35:12.666Z,28.92
2023-02-22T04:37:39.043Z,28.83
2023-02-22T04:40:05.387Z,28.73
2023-02-22T04:42:31.800Z,28.60
2023-02-22T04:44:58.142Z,28.47
2023-02-22T04:47:24.530Z,28.45
2023-02-22T04:49:50.874Z,28.39
2023-02-22T04:52:17.274Z,28.31
2023-02-22T04:54:43.654Z,28.30
2023-02-22T04:57:10.033Z,28.24
2023-02-22T04:59:36.377Z,28.15
2023-02-22T05:02:02.827Z,28.12
2023-02-22T05:04:29.205Z,28.05
2023-02-22T05:06:56.485Z,27.99
2023-02-22T05:09:21.887Z,27.90
2023-02-22T05:11:51.265Z,27.80
2023-02-22T05:14:17.603Z,27.75
2023-02-22T05:16:44.044Z,27.90
2023-02-22T05:19:10.362Z,27.73
2023-02-22T05:21:36.787Z,27.73
2023-02-22T05:24:03.133Z,27.77
2023-02-22T05:26:29.516Z,27.88
2023-02-22T05:28:55.881Z,27.96
2023-02-22T05:31:22.439Z,28.11
2023-02-22T05:33:48.671Z,28.30
2023-02-22T05:36:15.048Z,28.54
2023-02-22T05:38:41.391Z,28.73
2023-02-22T05:41:07.807Z,28.71
2023-02-22T05:43:34.135Z,28.85
2023-02-22T05:46:00.518Z,29.04
2023-02-22T05:48:26.886Z,29.08
2023-02-22T05:50:53.271Z,29.00
2023-02-22T05:53:19.621Z,28.97
2023-02-22T05:55:46.615Z,28.95
2023-02-22T05:58:12.376Z,29.17
2023-02-22T06:00:38.771Z,29.12
2023-02-22T06:03:05.112Z,29.12
2023-02-22T06:05:31.548Z,29.13
2023-02-22T06:07:57.837Z,28.93
2023-02-22T06:10:24.257Z,28.73
2023-02-22T06:12:50.607Z,28.55
2023-02-22T06:15:16.975Z,28.41
2023-02-22T06:17:43.336Z,28.31
2023-02-22T06:20:09.752Z,28.28
2023-02-22T06:22:36.090Z,28.52
2023-02-22T06:25:02.477Z,28.83
2023-02-22T06:27:28.814Z,29.11
2023-02-22T06:29:56.172Z,29.50
2023-02-22T06:32:21.619Z,29.72
2023-02-22T06:34:47.980Z,29.59
2023-02-22T06:37:14.319Z,29.41
2023-02-22T06:39:41.984Z,29.47
2023-02-22T06:42:07.116Z,29.34
2023-02-22T06:44:33.508Z,29.28
2023-02-22T06:46:59.873Z,29.34
2023-02-22T06:49:26.249Z,29.29
2023-02-22T06:51:52.587Z,29.00
2023-02-22T06:54:18.977Z,28.91
2023-02-22T06:56:45.352Z,28.92
2023-02-22T06:59:11.792Z,28.84
2023-02-22T07:01:38.134Z,28.82
2023-02-22T07:04:04.598Z,28.82
2023-02-22T07:06:30.937Z,28.95
2023-02-22T07:08:57.332Z,29.24
2023-02-22T07:11:23.758Z,29.66
2023-02-22T07:13:50.147Z,30.12
2023-02-22T07:16:16.562Z,30.37
2023-02-22T07:18:42.882Z,30.59
2023-02-22T07:21:09.225Z,30.30
2023-02-22T07:23:35.599Z,30.17
2023-02-22T07:26:01.994Z,30.08
2023-02-22T07:28:28.456Z,30.01
2023-02-22T07:30:54.808Z,29.99
2023-02-22T07:33:21.207Z,29.84
2023-02-22T07:35:47.563Z,30.05
2023-02-22T07:38:13.984Z,30.15
2023-02-22T07:40:40.360Z,30.50
2023-02-22T07:43:07.996Z,30.52
2023-02-22T07:45:33.149Z,30.82
2023-02-22T07:47:59.574Z,30.91
2023-02-22T07:50:25.899Z,31.00
2023-02-22T07:52:52.295Z,30.91
2023-02-22T07:55:18.629Z,30.72
2023-02-22T07:57:45.038Z,30.60
2023-02-22T08:00:11.381Z,30.59
2023-02-22T08:02:37.814Z,30.34
2023-02-22T08:05:04.149Z,30.05
2023-02-22T08:07:30.546Z,29.98
2023-02-22T08:09:56.889Z,29.76
2023-02-22T08:12:23.312Z,29.66
2023-02-22T08:14:49.691Z,29.82
2023-02-22T08:17:16.135Z,29.64
2023-02-22T08:19:42.440Z,29.62
2023-02-22T08:22:08.832Z,29.72
2023-02-22T08:24:35.188Z,30.01
2023-02-22T08:27:01.573Z,30.30
2023-02-22T08:29:27.921Z,30.60
2023-02-22T08:31:54.403Z,30.82
2023-02-22T08:34:20.660Z,30.95
2023-02-22T08:36:47.108Z,31.24
2023-02-22T08:39:13.454Z,31.38
2023-02-22T08:41:39.831Z,31.20
2023-02-22T08:44:06.170Z,31.11
2023-02-22T08:46:32.563Z,31.17
2023-02-22T08:48:58.908Z,31.25
2023-02-22T08:51:27.678Z,31.12
2023-02-22T08:53:53.847Z,31.40
2023-02-22T08:56:20.264Z,31.52
2023-02-22T08:58:46.669Z,31.16
2023-02-22T09:01:15.516Z,30.97
2023-02-22T09:03:39.437Z,31.05
2023-02-22T09:06:05.822Z,31.09
2023-02-22T09:08:32.146Z,31.39
2023-02-22T09:10:58.542Z,31.55
2023-02-22T09:16:10.241Z,31.78
2023-02-22T09:18:43.946Z,31.96
2023-02-22T09:21:02.946Z,31.67
2023-02-22T09:23:29.315Z,31.59
2023-02-22T09:25:55.709Z,31.40
2023-02-22T09:28:22.097Z,31.12
2023-02-22T09:30:48.551Z,30.94
2023-02-22T09:33:14.912Z,30.64
2023-02-22T09:35:41.227Z,30.51
2023-02-22T09:38:07.571Z,30.33
2023-02-22T09:40:33.992Z,30.28
2023-02-22T09:43:00.327Z,30.54
2023-02-22T09:45:26.864Z,30.76
2023-02-22T09:47:54.879Z,31.04
2023-02-22T09:50:19.502Z,31.20
2023-02-22T09:52:45.904Z,31.36
2023-02-22T09:55:12.377Z,31.49
2023-02-22T09:57:38.721Z,31.61
2023-02-22T10:00:05.114Z,31.27
2023-02-22T10:02:31.460Z,30.98
2023-02-22T10:04:57.846Z,31.03
2023-02-22T10:07:24.226Z,31.16
2023-02-22T10:09:50.665Z,31.33
2023-02-22T10:12:17.022Z,31.46
2023-02-22T10:14:44.071Z,31.62
2023-02-22T10:17:09.771Z,31.69
2023-02-22T10:19:36.167Z,31.44
2023-02-22T10:22:02.547Z,31.25
2023-02-22T10:24:28.924Z,30.89
2023-02-22T10:26:55.334Z,30.68
2023-02-22T10:29:21.762Z,30.50
2023-02-22T10:31:48.208Z,30.44
2023-02-22T10:34:14.503Z,30.67
2023-02-22T10:36:40.849Z,30.85
2023-02-22T10:39:07.267Z,30.95
2023-02-22T10:41:33.618Z,31.08
2023-02-22T10:44:00.006Z,31.11
2023-02-22T10:46:26.358Z,31.17
2023-02-22T10:48:52.749Z,31.24
2023-02-22T10:51:19.131Z,31.33
2023-02-22T10:53:45.531Z,31.33
2023-02-22T10:56:11.881Z,31.01
2023-02-22T10:58:38.279Z,30.86
2023-02-22T11:01:05.641Z,30.92
2023-02-22T11:03:31.268Z,30.99
2023-02-22T11:05:57.588Z,31.29
2023-02-22T11:08:23.984Z,31.54
2023-02-22T11:10:50.328Z,31.55
2023-02-22T11:13:16.725Z,31.69
2023-02-22T11:15:43.072Z,31.78
2023-02-22T11:18:09.456Z,31.53
2023-02-22T11:20:35.814Z,31.21
2023-02-22T11:23:02.213Z,30.98
2023-02-22T11:25:28.574Z,30.75
2023-02-22T11:27:54.996Z,30.64
2023-02-22T11:30:21.352Z,30.47
2023-02-22T11:32:47.728Z,30.62
2023-02-22T11:35:14.080Z,30.85
2023-02-22T11:37:40.515Z,30.96
2023-02-22T11:40:06.861Z,31.11
2023-02-22T11:42:33.220Z,31.24
2023-02-22T11:44:59.572Z,31.31
2023-02-22T11:47:25.956Z,31.37
2023-02-22T11:49:52.307Z,31.45
2023-02-22T11:52:18.685Z,31.47
2023-02-22T11:54:45.052Z,31.17
2023-02-22T11:57:11.465Z,31.12
2023-02-22T11:59:37.776Z,31.12
2023-02-22T12:02:04.168Z,31.17
2023-02-22T12:04:30.611Z,31.43
2023-02-22T12:06:56.912Z,31.35
2023-02-22T12:09:23.278Z,31.06
2023-02-22T12:11:49.677Z,30.71
2023-02-22T12:14:16.070Z,30.66
2023-02-22T12:16:42.443Z,30.45
2023-02-22T12:19:08.804Z,30.26
2023-02-22T12:21:35.188Z,30.17
2023-02-22T12:24:01.551Z,30.06
2023-02-22T12:26:27.932Z,30.00
2023-02-22T12:28:54.301Z,29.97
2023-02-22T12:31:20.732Z,29.85
2023-02-22T12:33:47.088Z,29.95
2023-02-22T12:36:13.441Z,30.14
2023-02-22T12:38:39.786Z,30.10
2023-02-22T12:41:06.182Z,30.23
2023-02-22T12:43:32.538Z,30.31
2023-02-22T12:45:59.058Z,30.37
2023-02-22T12:48:25.399Z,30.40
2023-02-22T12:50:51.764Z,30.33
2023-02-22T12:53:18.127Z,30.36
2023-02-22T12:55:44.524Z,30.18
2023-02-22T12:58:10.873Z,30.11
2023-02-22T13:00:37.276Z,30.17
2023-02-22T13:03:03.617Z,30.02
2023-02-22T13:05:30.063Z,29.90
2023-02-22T13:07:56.416Z,29.81
2023-02-22T13:10:22.797Z,29.84
2023-02-22T13:12:51.379Z,29.72
2023-02-22T13:15:15.544Z,29.67
2023-02-22T13:17:41.891Z,29.68
2023-02-22T13:20:08.312Z,29.59
2023-02-22T13:22:34.688Z,29.87
2023-02-22T13:25:01.092Z,29.91
2023-02-22T13:27:27.439Z,29.93
2023-02-22T13:29:53.834Z,29.82
2023-02-22T13:32:20.265Z,29.77
2023-02-22T13:34:46.635Z,29.96
2023-02-22T13:37:12.962Z,30.15
2023-02-22T13:39:39.334Z,30.12
2023-02-22T13:42:05.683Z,30.24
2023-02-22T13:44:32.089Z,30.40
2023-02-22T13:46:58.430Z,30.56
2023-02-22T13:49:25.771Z,30.52
2023-02-22T13:51:51.172Z,30.39
2023-02-22T13:54:17.610Z,30.83
2023-02-22T13:56:43.957Z,30.36
2023-02-22T13:59:10.473Z,30.14
2023-02-22T14:01:36.783Z,30.26
2023-02-22T14:04:03.185Z,30.25
2023-02-22T14:06:29.531Z,30.43
2023-02-22T14:08:55.949Z,30.29
2023-02-22T14:11:22.298Z,30.02
2023-02-22T14:13:48.752Z,29.84
2023-02-22T14:16:15.385Z,29.79
2023-02-22T14:18:41.514Z,29.64
2023-02-22T14:21:07.856Z,29.62
2023-02-22T14:23:34.256Z,29.66
2023-02-22T14:26:00.634Z,29.69
2023-02-22T14:28:27.027Z,29.83
2023-02-22T14:30:53.373Z,29.92
2023-02-22T14:33:19.772Z,30.08
2023-02-22T14:35:50.151Z,30.22
2023-02-22T14:38:12.510Z,30.42
2023-02-22T14:40:38.862Z,30.40
2023-02-22T14:43:05.221Z,30.23
2023-02-22T14:45:31.631Z,30.25
2023-02-22T14:47:57.940Z,29.92
2023-02-22T14:50:24.327Z,29.85
2023-02-22T14:52:50.715Z,29.93
2023-02-22T14:55:17.126Z,30.50
2023-02-22T14:57:43.464Z,29.83
2023-02-22T15:00:09.858Z,29.71
2023-02-22T15:02:36.245Z,29.68
2023-02-22T15:05:02.669Z,29.27
2023-02-22T15:07:28.967Z,29.18
2023-02-22T15:09:55.347Z,29.33
2023-02-22T15:12:21.697Z,29.30
2023-02-22T15:14:48.086Z,29.56
2023-02-22T15:17:14.424Z,29.79
2023-02-22T15:19:40.830Z,30.11
2023-02-22T15:22:07.173Z,30.30
2023-02-22T15:24:33.569Z,30.45
2023-02-22T15:27:02.636Z,30.21
2023-02-22T15:29:26.390Z,30.08
2023-02-22T15:31:52.657Z,29.82
2023-02-22T15:34:19.042Z,29.80
2023-02-22T15:36:45.389Z,29.74
2023-02-22T15:39:11.795Z,29.66
2023-02-22T15:41:38.139Z,29.81
2023-02-22T15:44:17.560Z,29.67
2023-02-22T15:46:30.916Z,29.48
2023-02-22T15:48:57.320Z,29.44
2023-02-22T15:51:23.649Z,29.35
2023-02-22T15:53:50.077Z,29.30
2023-02-22T15:56:16.422Z,29.17
2023-02-22T15:58:42.820Z,28.98
2023-02-22T16:01:10.152Z,28.98
2023-02-22T16:03:35.536Z,28.84
2023-02-22T16:06:01.872Z,28.82
2023-02-22T16:08:28.271Z,28.85
2023-02-22T16:10:54.622Z,29.08
2023-02-22T16:13:31.109Z,29.35
2023-02-22T16:15:47.348Z,29.43
2023-02-22T16:18:13.781Z,29.67
2023-02-22T16:20:40.082Z,29.76
2023-02-22T16:23:06.470Z,29.85
2023-02-22T16:25:32.883Z,29.68
2023-02-22T16:27:59.355Z,29.68
2023-02-22T16:30:26.062Z,29.72
2023-02-22T16:32:52.101Z,29.55
2023-02-22T16:35:18.561Z,29.44
2023-02-22T16:37:44.853Z,29.38
2023-02-22T16:40:11.203Z,29.21
2023-02-22T16:42:37.592Z,29.29
2023-02-22T16:45:03.927Z,29.06
2023-02-22T16:47:30.324Z,28.92
2023-02-22T16:49:56.770Z,28.90
2023-02-22T16:52:23.045Z,28.78
2023-02-22T16:54:49.397Z,28.75
2023-02-22T16:57:15.758Z,28.60
2023-02-22T16:59:42.105Z,28.71
2023-02-22T17:02:08.479Z,28.82
2023-02-22T17:04:34.815Z,28.94
2023-02-22T17:07:02.576Z,29.14
2023-02-22T17:09:27.535Z,29.29
2023-02-22T17:11:53.916Z,29.42
2023-02-22T17:14:20.247Z,29.59
2023-02-22T17:16:46.637Z,29.64
2023-02-22T17:19:12.981Z,29.57
2023-02-22T17:21:39.394Z,29.40
2023-02-22T17:24:05.732Z,29.40
2023-02-22T17:26:32.198Z,29.39
2023-02-22T17:28:58.533Z,29.29
2023-02-22T17:31:24.957Z,29.25
2023-02-22T17:33:51.330Z,29.21
2023-02-22T17:36:17.908Z,29.08
2023-02-22T17:38:43.975Z,28.84
2023-02-22T17:41:10.360Z,28.64
2023-02-22T17:43:36.702Z,28.56
2023-02-22T17:46:03.117Z,28.52
2023-02-22T17:48:29.459Z,28.42
2023-02-22T17:50:55.832Z,28.49
2023-02-22T17:53:22.182Z,28.69
2023-02-22T17:55:48.586Z,28.90
2023-02-22T17:58:14.996Z,29.02
2023-02-22T18:00:41.341Z,28.73
2023-02-22T18:03:07.754Z,28.81
2023-02-22T18:05:34.123Z,28.90
2023-02-22T18:08:00.454Z,29.15
2023-02-22T18:10:26.847Z,29.27
2023-02-22T18:12:53.198Z,29.25
2023-02-22T18:15:19.579Z,29.20
2023-02-22T18:17:45.911Z,29.13
2023-02-22T18:20:12.301Z,29.08
2023-02-22T18:22:38.650Z,29.24
2023-02-22T18:25:05.049Z,29.09
2023-02-22T18:27:31.371Z,29.04
2023-02-22T18:29:57.762Z,28.80
2023-02-22T18:32:24.156Z,28.61
2023-02-22T18:34:50.478Z,28.46
2023-02-22T18:37:16.814Z,28.35
2023-02-22T18:39:43.191Z,28.34
2023-02-22T18:42:09.537Z,28.55
2023-02-22T18:44:35.932Z,28.85
2023-02-22T18:47:02.272Z,29.05
2023-02-22T18:49:28.735Z,29.14
2023-02-22T18:51:55.071Z,29.08
2023-02-22T18:54:21.519Z,28.89
2023-02-22T18:56:47.844Z,28.82
2023-02-22T18:59:14.221Z,28.60
2023-02-22T19:01:40.665Z,28.45
2023-02-22T19:04:06.979Z,28.50
2023-02-22T19:06:33.317Z,28.52
2023-02-22T19:08:59.702Z,28.57
2023-02-22T19:11:26.039Z,28.65
2023-02-22T19:13:52.459Z,28.71
2023-02-22T19:16:19.199Z,28.77
2023-02-22T19:18:45.269Z,28.83
2023-02-22T19:21:11.609Z,28.89
2023-02-22T19:23:39.766Z,28.97
2023-02-22T19:26:04.338Z,29.01
2023-02-22T19:28:30.712Z,29.00
2023-02-22T19:30:57.086Z,29.13
2023-02-22T19:33:23.440Z,29.15
2023-02-22T19:35:49.796Z,29.14
2023-02-22T19:38:16.153Z,29.25
2023-02-22T19:40:42.501Z,29.37
2023-02-22T19:43:08.883Z,29.35
2023-02-22T19:45:35.412Z,29.44
2023-02-22T19:48:01.748Z,29.45
2023-02-22T19:50:28.091Z,29.52
2023-02-22T19:52:54.478Z,29.56
2023-02-22T19:55:20.810Z,29.56
2023-02-22T19:57:47.191Z,29.59
2023-02-22T20:00:13.531Z,29.66
2023-02-22T20:02:39.938Z,29.88
2023-02-22T20:05:06.380Z,29.76
2023-02-22T20:07:32.766Z,29.83
2023-02-22T20:09:59.103Z,30.00
2023-02-22T20:12:25.493Z,29.99
2023-02-22T20:14:51.831Z,30.03
2023-02-22T20:17:18.222Z,30.10
2023-02-22T20:19:44.566Z,30.19
2023-02-22T20:22:10.957Z,30.21
2023-02-22T20:24:37.298Z,30.33
2023-02-22T20:27:03.697Z,30.45
2023-02-22T20:29:30.078Z,30.43
2023-02-22T20:31:56.608Z,30.46
2023-02-22T20:34:26.016Z,30.58
2023-02-22T20:36:49.195Z,30.55
2023-02-22T20:39:15.526Z,30.63
2023-02-22T20:41:41.957Z,30.67
2023-02-22T20:44:08.353Z,30.71
2023-02-22T20:46:34.745Z,30.69
2023-02-22T20:49:01.129Z,30.79
2023-02-22T20:51:27.488Z,30.79
2023-02-22T20:53:53.897Z,30.80
2023-02-22T20:56:20.274Z,30.82
2023-02-22T20:58:46.619Z,30.88
2023-02-22T21:01:13.007Z,30.92
2023-02-22T21:03:39.345Z,30.95
2023-02-22T21:06:05.725Z,30.91
2023-02-22T21:08:32.064Z,30.97
2023-02-22T21:10:58.444Z,31.02
2023-02-22T21:13:24.782Z,31.00
2023-02-22T21:15:52.693Z,31.04
2023-02-22T21:18:17.513Z,31.07
2023-02-22T21:20:43.896Z,31.08
2023-02-22T21:23:10.355Z,31.12
2023-02-22T21:25:36.700Z,31.18
2023-02-22T21:28:03.032Z,31.19
2023-02-22T21:30:29.452Z,31.26
2023-02-22T21:32:55.901Z,31.26
2023-02-22T21:35:22.308Z,31.28
2023-02-22T21:37:48.650Z,31.30
2023-02-22T21:40:15.041Z,31.33
2023-02-22T21:42:41.391Z,31.35
2023-02-22T21:45:07.834Z,31.37
2023-02-22T21:47:34.163Z,31.40
2023-02-22T21:50:00.543Z,31.45
2023-02-22T21:52:26.888Z,31.45
2023-02-22T21:54:53.273Z,31.49
2023-02-22T21:57:19.624Z,31.48
2023-02-22T21:59:45.998Z,31.51
2023-02-22T22:02:12.375Z,31.54
2023-02-22T22:04:38.745Z,31.57
2023-02-22T22:07:05.118Z,31.61
2023-02-22T22:09:31.506Z,31.64
2023-02-22T22:11:57.866Z,31.63
2023-02-22T22:14:24.259Z,31.71
2023-02-22T22:16:50.597Z,31.71
2023-02-22T22:19:16.977Z,31.71
2023-02-22T22:21:43.325Z,31.77
2023-02-22T22:24:09.703Z,31.76
2023-02-22T22:26:36.075Z,31.76
2023-02-22T22:29:02.552Z,31.78
2023-02-22T22:31:29.046Z,31.80
2023-02-22T22:33:55.344Z,31.84
2023-02-22T22:36:21.623Z,31.87
2023-02-22T22:38:48.016Z,31.85
2023-02-22T22:41:14.362Z,31.91
2023-02-22T22:43:40.739Z,31.92
2023-02-22T22:46:07.183Z,31.95
2023-02-22T22:48:33.455Z,31.95
2023-02-22T22:50:59.800Z,31.98
2023-02-22T22:53:26.175Z,32.01
2023-02-22T22:55:52.518Z,32.03
2023-02-22T22:58:18.906Z,32.05
2023-02-22T23:00:45.245Z,32.09
2023-02-22T23:03:11.727Z,32.07
2023-02-22T23:05:37.981Z,32.08
2023-02-22T23:08:04.360Z,32.08
2023-02-22T23:10:30.703Z,32.11
2023-02-22T23:12:57.094Z,32.15
2023-02-22T23:15:23.432Z,32.16
2023-02-22T23:17:51.033Z,32.19
2023-02-22T23:20:16.143Z,32.18
2023-02-22T23:22:42.543Z,32.21
2023-02-22T23:25:08.907Z,32.23
2023-02-22T23:27:35.363Z,32.23
2023-02-22T23:30:01.739Z,32.29
2023-02-22T23:32:28.203Z,32.31
2023-02-22T23:34:54.476Z,32.30
2023-02-22T23:37:20.934Z,32.32
2023-02-22T23:39:47.198Z,32.32
2023-02-22T23:42:13.591Z,32.35
2023-02-22T23:44:39.922Z,32.35
2023-02-22T23:47:06.305Z,32.35
2023-02-22T23:49:32.662Z,32.40
2023-02-22T23:51:59.043Z,32.40
2023-02-22T23:54:28.408Z,32.43
2023-02-22T23:56:54.777Z,32.46
2023-02-22T23:59:21.122Z,32.49
